sensor_id;sensor_type;location;lat;lon;timestamp;P1;durP1;ratioP1;P2;durP2;ratioP2
53409;SDS011;66590;50.734;4.246;2023-07-28T00:00:11;11.52;;;6.78;;
53409;SDS011;66590;50.734;4.246;2023-07-28T00:02:39;7.30;;;6.50;;
53409;SDS011;66590;50.734;4.246;2023-07-28T00:05:06;11.68;;;7.03;;
53409;SDS011;66590;50.734;4.246;2023-07-28T00:07:33;8.55;;;7.00;;
53409;SDS011;66590;50.734;4.246;2023-07-28T00:10:00;10.70;;;6.85;;
53409;SDS011;66590;50.734;4.246;2023-07-28T00:12:27;10.20;;;7.15;;
53409;SDS011;66590;50.734;4.246;2023-07-28T00:14:54;7.82;;;6.90;;
53409;SDS011;66590;50.734;4.246;2023-07-28T00:17:23;10.68;;;7.60;;
53409;SDS011;66590;50.734;4.246;2023-07-28T00:19:50;13.02;;;7.78;;
53409;SDS011;66590;50.734;4.246;2023-07-28T00:22:17;9.05;;;7.45;;
53409;SDS011;66590;50.734;4.246;2023-07-28T00:24:44;11.48;;;7.70;;
53409;SDS011;66590;50.734;4.246;2023-07-28T00:27:11;8.82;;;6.95;;
53409;SDS011;66590;50.734;4.246;2023-07-28T00:29:38;10.18;;;7.25;;
53409;SDS011;66590;50.734;4.246;2023-07-28T00:32:05;9.02;;;6.65;;
53409;SDS011;66590;50.734;4.246;2023-07-28T00:34:34;10.07;;;7.05;;
53409;SDS011;66590;50.734;4.246;2023-07-28T00:37:01;8.48;;;7.00;;
53409;SDS011;66590;50.734;4.246;2023-07-28T00:39:28;7.80;;;7.00;;
53409;SDS011;66590;50.734;4.246;2023-07-28T00:41:58;8.20;;;7.22;;
53409;SDS011;66590;50.734;4.246;2023-07-28T00:44:25;9.95;;;7.60;;
53409;SDS011;66590;50.734;4.246;2023-07-28T00:46:52;10.77;;;7.68;;
53409;SDS011;66590;50.734;4.246;2023-07-28T00:49:19;9.77;;;7.40;;
53409;SDS011;66590;50.734;4.246;2023-07-28T00:51:48;11.73;;;7.97;;
53409;SDS011;66590;50.734;4.246;2023-07-28T00:54:16;9.35;;;7.20;;
53409;SDS011;66590;50.734;4.246;2023-07-28T00:56:43;11.15;;;7.43;;
53409;SDS011;66590;50.734;4.246;2023-07-28T00:59:11;11.43;;;7.13;;
53409;SDS011;66590;50.734;4.246;2023-07-28T01:01:38;8.88;;;7.32;;
53409;SDS011;66590;50.734;4.246;2023-07-28T01:04:05;10.43;;;7.40;;
53409;SDS011;66590;50.734;4.246;2023-07-28T01:06:35;12.00;;;7.63;;
53409;SDS011;66590;50.734;4.246;2023-07-28T01:11:38;9.68;;;7.50;;
53409;SDS011;66590;50.734;4.246;2023-07-28T01:14:18;8.57;;;7.13;;
53409;SDS011;66590;50.734;4.246;2023-07-28T01:16:45;7.97;;;7.18;;
53409;SDS011;66590;50.734;4.246;2023-07-28T01:19:12;9.65;;;7.05;;
53409;SDS011;66590;50.734;4.246;2023-07-28T01:21:42;8.65;;;7.03;;
53409;SDS011;66590;50.734;4.246;2023-07-28T01:24:14;10.05;;;6.53;;
53409;SDS011;66590;50.734;4.246;2023-07-28T01:26:48;7.93;;;7.13;;
53409;SDS011;66590;50.734;4.246;2023-07-28T01:29:16;9.32;;;6.88;;
53409;SDS011;66590;50.734;4.246;2023-07-28T01:31:45;9.65;;;7.32;;
53409;SDS011;66590;50.734;4.246;2023-07-28T01:34:13;7.55;;;6.85;;
53409;SDS011;66590;50.734;4.246;2023-07-28T01:36:40;10.55;;;6.93;;
53409;SDS011;66590;50.734;4.246;2023-07-28T01:39:07;7.07;;;6.38;;
53409;SDS011;66590;50.734;4.246;2023-07-28T01:41:34;9.35;;;6.68;;
53409;SDS011;66590;50.734;4.246;2023-07-28T01:44:02;7.93;;;7.15;;
53409;SDS011;66590;50.734;4.246;2023-07-28T01:46:29;10.88;;;7.15;;
53409;SDS011;66590;50.734;4.246;2023-07-28T01:48:56;8.45;;;6.68;;
53409;SDS011;66590;50.734;4.246;2023-07-28T01:51:23;8.70;;;7.10;;
53409;SDS011;66590;50.734;4.246;2023-07-28T01:53:50;8.50;;;6.93;;
53409;SDS011;66590;50.734;4.246;2023-07-28T01:56:17;8.20;;;7.00;;
53409;SDS011;66590;50.734;4.246;2023-07-28T01:58:44;9.30;;;7.15;;
53409;SDS011;66590;50.734;4.246;2023-07-28T02:01:13;7.60;;;6.63;;
53409;SDS011;66590;50.734;4.246;2023-07-28T02:03:40;7.72;;;6.90;;
53409;SDS011;66590;50.734;4.246;2023-07-28T02:06:07;11.48;;;6.72;;
53409;SDS011;66590;50.734;4.246;2023-07-28T02:08:34;7.35;;;6.65;;
53409;SDS011;66590;50.734;4.246;2023-07-28T02:11:02;8.25;;;6.50;;
53409;SDS011;66590;50.734;4.246;2023-07-28T02:13:28;8.95;;;6.95;;
53409;SDS011;66590;50.734;4.246;2023-07-28T02:15:55;10.00;;;7.20;;
53409;SDS011;66590;50.734;4.246;2023-07-28T02:18:24;8.85;;;6.47;;
53409;SDS011;66590;50.734;4.246;2023-07-28T02:20:51;9.80;;;7.53;;
53409;SDS011;66590;50.734;4.246;2023-07-28T02:23:18;7.82;;;6.63;;
53409;SDS011;66590;50.734;4.246;2023-07-28T02:25:45;8.88;;;7.20;;
53409;SDS011;66590;50.734;4.246;2023-07-28T02:28:12;8.82;;;6.93;;
53409;SDS011;66590;50.734;4.246;2023-07-28T02:30:39;7.97;;;6.70;;
53409;SDS011;66590;50.734;4.246;2023-07-28T02:33:06;7.70;;;6.72;;
53409;SDS011;66590;50.734;4.246;2023-07-28T02:35:34;8.27;;;6.97;;
53409;SDS011;66590;50.734;4.246;2023-07-28T02:38:01;7.75;;;6.85;;
53409;SDS011;66590;50.734;4.246;2023-07-28T02:40:28;9.43;;;6.93;;
53409;SDS011;66590;50.734;4.246;2023-07-28T02:42:55;9.57;;;6.57;;
53409;SDS011;66590;50.734;4.246;2023-07-28T02:45:22;6.95;;;6.25;;
53409;SDS011;66590;50.734;4.246;2023-07-28T02:47:49;8.15;;;5.97;;
53409;SDS011;66590;50.734;4.246;2023-07-28T02:50:16;8.57;;;6.50;;
53409;SDS011;66590;50.734;4.246;2023-07-28T02:52:45;10.15;;;6.45;;
53409;SDS011;66590;50.734;4.246;2023-07-28T02:55:12;7.60;;;6.20;;
53409;SDS011;66590;50.734;4.246;2023-07-28T02:57:39;8.85;;;5.82;;
53409;SDS011;66590;50.734;4.246;2023-07-28T03:00:06;7.80;;;6.45;;
53409;SDS011;66590;50.734;4.246;2023-07-28T03:02:36;8.52;;;6.57;;
53409;SDS011;66590;50.734;4.246;2023-07-28T03:05:04;8.07;;;6.47;;
53409;SDS011;66590;50.734;4.246;2023-07-28T03:07:31;11.27;;;6.40;;
53409;SDS011;66590;50.734;4.246;2023-07-28T03:09:59;10.07;;;6.40;;
53409;SDS011;66590;50.734;4.246;2023-07-28T03:12:26;8.55;;;6.47;;
53409;SDS011;66590;50.734;4.246;2023-07-28T03:14:53;11.00;;;6.65;;
53409;SDS011;66590;50.734;4.246;2023-07-28T03:17:20;10.48;;;7.07;;
53409;SDS011;66590;50.734;4.246;2023-07-28T03:19:47;9.70;;;6.40;;
53409;SDS011;66590;50.734;4.246;2023-07-28T03:22:14;8.90;;;6.05;;
53409;SDS011;66590;50.734;4.246;2023-07-28T03:24:41;8.13;;;5.75;;
53409;SDS011;66590;50.734;4.246;2023-07-28T03:27:10;13.55;;;6.38;;
53409;SDS011;66590;50.734;4.246;2023-07-28T03:29:37;9.68;;;6.50;;
53409;SDS011;66590;50.734;4.246;2023-07-28T03:32:04;8.95;;;6.50;;
53409;SDS011;66590;50.734;4.246;2023-07-28T03:34:31;10.80;;;5.65;;
53409;SDS011;66590;50.734;4.246;2023-07-28T03:36:58;7.85;;;5.97;;
53409;SDS011;66590;50.734;4.246;2023-07-28T03:39:25;7.40;;;6.20;;
53409;SDS011;66590;50.734;4.246;2023-07-28T03:41:52;8.23;;;6.10;;
53409;SDS011;66590;50.734;4.246;2023-07-28T03:44:21;9.32;;;6.32;;
53409;SDS011;66590;50.734;4.246;2023-07-28T03:46:48;8.80;;;5.75;;
53409;SDS011;66590;50.734;4.246;2023-07-28T03:49:15;6.63;;;6.05;;
53409;SDS011;66590;50.734;4.246;2023-07-28T03:51:42;9.20;;;5.70;;
53409;SDS011;66590;50.734;4.246;2023-07-28T03:54:09;7.00;;;5.07;;
53409;SDS011;66590;50.734;4.246;2023-07-28T03:56:36;8.65;;;5.70;;
53409;SDS011;66590;50.734;4.246;2023-07-28T03:59:04;7.38;;;5.55;;
53409;SDS011;66590;50.734;4.246;2023-07-28T04:01:34;9.35;;;5.63;;
53409;SDS011;66590;50.734;4.246;2023-07-28T04:04:01;9.77;;;5.53;;
53409;SDS011;66590;50.734;4.246;2023-07-28T04:09:12;12.35;;;6.22;;
53409;SDS011;66590;50.734;4.246;2023-07-28T04:11:40;6.28;;;5.68;;
53409;SDS011;66590;50.734;4.246;2023-07-28T04:14:07;11.23;;;5.90;;
53409;SDS011;66590;50.734;4.246;2023-07-28T04:16:36;8.98;;;5.75;;
53409;SDS011;66590;50.734;4.246;2023-07-28T04:19:03;7.65;;;5.97;;
53409;SDS011;66590;50.734;4.246;2023-07-28T04:21:30;7.90;;;5.93;;
53409;SDS011;66590;50.734;4.246;2023-07-28T04:23:57;9.20;;;5.60;;
53409;SDS011;66590;50.734;4.246;2023-07-28T04:26:24;7.03;;;5.20;;
53409;SDS011;66590;50.734;4.246;2023-07-28T04:28:52;6.13;;;5.22;;
53409;SDS011;66590;50.734;4.246;2023-07-28T04:31:19;6.95;;;5.80;;
53409;SDS011;66590;50.734;4.246;2023-07-28T04:33:47;8.82;;;5.90;;
53409;SDS011;66590;50.734;4.246;2023-07-28T04:36:14;8.95;;;5.07;;
53409;SDS011;66590;50.734;4.246;2023-07-28T04:38:41;5.80;;;5.28;;
53409;SDS011;66590;50.734;4.246;2023-07-28T04:41:08;5.63;;;5.03;;
53409;SDS011;66590;50.734;4.246;2023-07-28T04:43:35;6.80;;;5.50;;
53409;SDS011;66590;50.734;4.246;2023-07-28T04:46:02;8.10;;;5.68;;
53409;SDS011;66590;50.734;4.246;2023-07-28T04:48:30;8.38;;;5.68;;
53409;SDS011;66590;50.734;4.246;2023-07-28T04:50:58;7.50;;;4.88;;
53409;SDS011;66590;50.734;4.246;2023-07-28T04:53:25;6.72;;;5.25;;
53409;SDS011;66590;50.734;4.246;2023-07-28T04:55:52;6.75;;;5.57;;
53409;SDS011;66590;50.734;4.246;2023-07-28T04:58:19;10.43;;;6.15;;
53409;SDS011;66590;50.734;4.246;2023-07-28T05:00:46;8.48;;;5.93;;
53409;SDS011;66590;50.734;4.246;2023-07-28T05:03:14;10.23;;;6.93;;
53409;SDS011;66590;50.734;4.246;2023-07-28T05:05:42;6.32;;;5.72;;
53409;SDS011;66590;50.734;4.246;2023-07-28T05:08:11;8.88;;;6.30;;
53409;SDS011;66590;50.734;4.246;2023-07-28T05:10:38;8.98;;;5.68;;
53409;SDS011;66590;50.734;4.246;2023-07-28T05:13:09;6.18;;;5.57;;
53409;SDS011;66590;50.734;4.246;2023-07-28T05:15:36;9.38;;;5.55;;
53409;SDS011;66590;50.734;4.246;2023-07-28T05:18:03;7.40;;;5.25;;
53409;SDS011;66590;50.734;4.246;2023-07-28T05:20:31;7.07;;;4.72;;
53409;SDS011;66590;50.734;4.246;2023-07-28T05:22:58;5.90;;;4.47;;
53409;SDS011;66590;50.734;4.246;2023-07-28T05:25:26;5.35;;;4.28;;
53409;SDS011;66590;50.734;4.246;2023-07-28T05:27:53;5.60;;;3.72;;
53409;SDS011;66590;50.734;4.246;2023-07-28T05:30:20;4.20;;;3.80;;
53409;SDS011;66590;50.734;4.246;2023-07-28T05:32:53;4.82;;;3.58;;
53409;SDS011;66590;50.734;4.246;2023-07-28T05:35:20;5.80;;;4.30;;
53409;SDS011;66590;50.734;4.246;2023-07-28T05:37:47;4.78;;;3.85;;
53409;SDS011;66590;50.734;4.246;2023-07-28T05:40:14;4.95;;;4.28;;
53409;SDS011;66590;50.734;4.246;2023-07-28T05:42:43;6.25;;;4.18;;
53409;SDS011;66590;50.734;4.246;2023-07-28T05:45:10;5.82;;;4.82;;
53409;SDS011;66590;50.734;4.246;2023-07-28T05:47:37;5.35;;;4.85;;
53409;SDS011;66590;50.734;4.246;2023-07-28T05:50:05;6.63;;;4.97;;
53409;SDS011;66590;50.734;4.246;2023-07-28T05:52:33;7.85;;;5.15;;
53409;SDS011;66590;50.734;4.246;2023-07-28T05:55:00;6.35;;;4.72;;
53409;SDS011;66590;50.734;4.246;2023-07-28T05:57:27;5.72;;;5.13;;
53409;SDS011;66590;50.734;4.246;2023-07-28T05:59:55;10.10;;;5.32;;
53409;SDS011;66590;50.734;4.246;2023-07-28T06:02:22;7.28;;;5.82;;
53409;SDS011;66590;50.734;4.246;2023-07-28T06:04:50;7.43;;;5.65;;
53409;SDS011;66590;50.734;4.246;2023-07-28T06:07:16;7.60;;;5.57;;
53409;SDS011;66590;50.734;4.246;2023-07-28T06:09:43;6.57;;;5.03;;
53409;SDS011;66590;50.734;4.246;2023-07-28T06:12:10;8.35;;;4.50;;
53409;SDS011;66590;50.734;4.246;2023-07-28T06:14:38;5.82;;;5.18;;
53409;SDS011;66590;50.734;4.246;2023-07-28T06:17:06;7.10;;;5.70;;
53409;SDS011;66590;50.734;4.246;2023-07-28T06:19:33;6.28;;;5.20;;
53409;SDS011;66590;50.734;4.246;2023-07-28T06:22:00;7.70;;;4.88;;
53409;SDS011;66590;50.734;4.246;2023-07-28T06:24:27;7.35;;;5.03;;
53409;SDS011;66590;50.734;4.246;2023-07-28T06:26:54;5.38;;;4.70;;
53409;SDS011;66590;50.734;4.246;2023-07-28T06:29:21;7.68;;;4.95;;
53409;SDS011;66590;50.734;4.246;2023-07-28T06:31:48;5.53;;;4.80;;
53409;SDS011;66590;50.734;4.246;2023-07-28T06:34:17;7.40;;;5.40;;
53409;SDS011;66590;50.734;4.246;2023-07-28T06:36:47;5.60;;;4.43;;
53409;SDS011;66590;50.734;4.246;2023-07-28T06:39:14;7.20;;;4.45;;
53409;SDS011;66590;50.734;4.246;2023-07-28T06:41:41;5.88;;;4.55;;
53409;SDS011;66590;50.734;4.246;2023-07-28T06:44:08;6.57;;;4.53;;
53409;SDS011;66590;50.734;4.246;2023-07-28T06:46:35;4.78;;;4.28;;
53409;SDS011;66590;50.734;4.246;2023-07-28T06:49:03;4.75;;;4.22;;
53409;SDS011;66590;50.734;4.246;2023-07-28T06:51:31;6.45;;;4.28;;
53409;SDS011;66590;50.734;4.246;2023-07-28T06:54:00;5.18;;;4.68;;
53409;SDS011;66590;50.734;4.246;2023-07-28T06:56:27;4.60;;;4.10;;
53409;SDS011;66590;50.734;4.246;2023-07-28T06:58:54;8.10;;;4.60;;
53409;SDS011;66590;50.734;4.246;2023-07-28T07:01:39;5.35;;;4.32;;
53409;SDS011;66590;50.734;4.246;2023-07-28T07:04:06;4.70;;;3.85;;
53409;SDS011;66590;50.734;4.246;2023-07-28T07:06:34;5.88;;;4.30;;
53409;SDS011;66590;50.734;4.246;2023-07-28T07:09:02;5.07;;;4.07;;
53409;SDS011;66590;50.734;4.246;2023-07-28T07:11:29;5.18;;;4.40;;
53409;SDS011;66590;50.734;4.246;2023-07-28T07:13:56;4.38;;;3.95;;
53409;SDS011;66590;50.734;4.246;2023-07-28T07:16:23;4.00;;;3.67;;
53409;SDS011;66590;50.734;4.246;2023-07-28T07:18:50;4.68;;;3.60;;
53409;SDS011;66590;50.734;4.246;2023-07-28T07:21:17;5.70;;;3.78;;
53409;SDS011;66590;50.734;4.246;2023-07-28T07:23:46;5.50;;;3.70;;
53409;SDS011;66590;50.734;4.246;2023-07-28T07:26:13;3.95;;;3.58;;
53409;SDS011;66590;50.734;4.246;2023-07-28T07:28:40;3.88;;;3.47;;
53409;SDS011;66590;50.734;4.246;2023-07-28T07:31:11;2.90;;;2.70;;
53409;SDS011;66590;50.734;4.246;2023-07-28T07:33:38;3.15;;;2.85;;
53409;SDS011;66590;50.734;4.246;2023-07-28T07:36:05;3.15;;;2.95;;
53409;SDS011;66590;50.734;4.246;2023-07-28T07:38:38;3.38;;;3.05;;
53409;SDS011;66590;50.734;4.246;2023-07-28T07:41:07;3.80;;;3.22;;
53409;SDS011;66590;50.734;4.246;2023-07-28T07:43:34;3.25;;;2.92;;
53409;SDS011;66590;50.734;4.246;2023-07-28T07:46:02;4.38;;;3.97;;
53409;SDS011;66590;50.734;4.246;2023-07-28T07:48:30;5.55;;;3.63;;
53409;SDS011;66590;50.734;4.246;2023-07-28T07:50:57;6.35;;;3.63;;
53409;SDS011;66590;50.734;4.246;2023-07-28T07:53:24;4.10;;;3.50;;
53409;SDS011;66590;50.734;4.246;2023-07-28T07:55:51;67.75;;;11.27;;
53409;SDS011;66590;50.734;4.246;2023-07-28T07:58:19;9.20;;;3.92;;
53409;SDS011;66590;50.734;4.246;2023-07-28T08:00:46;3.00;;;2.80;;
53409;SDS011;66590;50.734;4.246;2023-07-28T08:03:13;4.35;;;2.90;;
53409;SDS011;66590;50.734;4.246;2023-07-28T08:05:40;2.85;;;1.88;;
53409;SDS011;66590;50.734;4.246;2023-07-28T08:08:07;1.63;;;1.40;;
53409;SDS011;66590;50.734;4.246;2023-07-28T08:10:34;1.80;;;1.45;;
53409;SDS011;66590;50.734;4.246;2023-07-28T08:13:02;2.53;;;2.10;;
53409;SDS011;66590;50.734;4.246;2023-07-28T08:15:30;1.60;;;1.50;;
53409;SDS011;66590;50.734;4.246;2023-07-28T08:17:57;3.95;;;1.63;;
53409;SDS011;66590;50.734;4.246;2023-07-28T08:20:24;2.45;;;1.60;;
53409;SDS011;66590;50.734;4.246;2023-07-28T08:22:51;2.30;;;2.10;;
53409;SDS011;66590;50.734;4.246;2023-07-28T08:25:18;3.08;;;2.78;;
53409;SDS011;66590;50.734;4.246;2023-07-28T08:27:45;3.03;;;2.75;;
53409;SDS011;66590;50.734;4.246;2023-07-28T08:30:13;3.38;;;3.08;;
53409;SDS011;66590;50.734;4.246;2023-07-28T08:32:41;2.80;;;2.60;;
53409;SDS011;66590;50.734;4.246;2023-07-28T08:35:09;2.45;;;2.25;;
53409;SDS011;66590;50.734;4.246;2023-07-28T08:37:36;3.05;;;2.60;;
53409;SDS011;66590;50.734;4.246;2023-07-28T08:40:04;3.65;;;2.15;;
53409;SDS011;66590;50.734;4.246;2023-07-28T08:42:35;2.88;;;2.42;;
53409;SDS011;66590;50.734;4.246;2023-07-28T08:45:04;1.88;;;1.10;;
53409;SDS011;66590;50.734;4.246;2023-07-28T08:47:32;2.25;;;1.35;;
53409;SDS011;66590;50.734;4.246;2023-07-28T08:50:01;0.88;;;0.88;;
53409;SDS011;66590;50.734;4.246;2023-07-28T08:52:28;2.30;;;1.30;;
53409;SDS011;66590;50.734;4.246;2023-07-28T08:54:55;1.65;;;1.30;;
53409;SDS011;66590;50.734;4.246;2023-07-28T08:57:30;2.70;;;1.10;;
53409;SDS011;66590;50.734;4.246;2023-07-28T08:59:58;3.55;;;1.48;;
53409;SDS011;66590;50.734;4.246;2023-07-28T09:02:39;1.50;;;1.40;;
53409;SDS011;66590;50.734;4.246;2023-07-28T09:05:08;1.70;;;1.50;;
53409;SDS011;66590;50.734;4.246;2023-07-28T09:07:51;3.15;;;1.75;;
53409;SDS011;66590;50.734;4.246;2023-07-28T09:10:18;2.50;;;1.90;;
53409;SDS011;66590;50.734;4.246;2023-07-28T09:12:52;3.55;;;2.35;;
53409;SDS011;66590;50.734;4.246;2023-07-28T09:15:19;2.75;;;2.42;;
53409;SDS011;66590;50.734;4.246;2023-07-28T09:17:52;3.85;;;2.55;;
53409;SDS011;66590;50.734;4.246;2023-07-28T09:20:33;5.13;;;2.80;;
53409;SDS011;66590;50.734;4.246;2023-07-28T09:23:09;3.38;;;2.85;;
53409;SDS011;66590;50.734;4.246;2023-07-28T09:25:43;4.00;;;3.03;;
53409;SDS011;66590;50.734;4.246;2023-07-28T09:28:17;4.40;;;3.05;;
53409;SDS011;66590;50.734;4.246;2023-07-28T09:30:51;4.57;;;3.00;;
53409;SDS011;66590;50.734;4.246;2023-07-28T09:33:32;3.90;;;3.08;;
53409;SDS011;66590;50.734;4.246;2023-07-28T09:36:08;4.57;;;3.33;;
53409;SDS011;66590;50.734;4.246;2023-07-28T09:38:44;3.38;;;3.00;;
53409;SDS011;66590;50.734;4.246;2023-07-28T09:41:19;3.40;;;2.90;;
53409;SDS011;66590;50.734;4.246;2023-07-28T09:43:54;3.45;;;2.83;;
53409;SDS011;66590;50.734;4.246;2023-07-28T09:46:22;3.53;;;2.38;;
53409;SDS011;66590;50.734;4.246;2023-07-28T09:48:59;3.55;;;2.45;;
53409;SDS011;66590;50.734;4.246;2023-07-28T09:51:36;2.97;;;2.70;;
53409;SDS011;66590;50.734;4.246;2023-07-28T09:54:16;3.03;;;2.67;;
53409;SDS011;66590;50.734;4.246;2023-07-28T09:56:49;4.05;;;2.35;;
53409;SDS011;66590;50.734;4.246;2023-07-28T09:59:24;2.88;;;2.60;;
53409;SDS011;66590;50.734;4.246;2023-07-28T10:01:55;3.05;;;2.53;;
53409;SDS011;66590;50.734;4.246;2023-07-28T10:04:30;3.80;;;2.50;;
53409;SDS011;66590;50.734;4.246;2023-07-28T10:06:59;3.80;;;2.70;;
53409;SDS011;66590;50.734;4.246;2023-07-28T10:09:34;6.95;;;2.80;;
53409;SDS011;66590;50.734;4.246;2023-07-28T10:12:03;3.25;;;2.80;;
53409;SDS011;66590;50.734;4.246;2023-07-28T10:14:32;2.60;;;2.40;;
53409;SDS011;66590;50.734;4.246;2023-07-28T10:17:11;4.22;;;2.90;;
53409;SDS011;66590;50.734;4.246;2023-07-28T10:19:48;8.10;;;3.80;;
53409;SDS011;66590;50.734;4.246;2023-07-28T10:22:23;2.90;;;2.70;;
53409;SDS011;66590;50.734;4.246;2023-07-28T10:24:53;3.40;;;2.75;;
53409;SDS011;66590;50.734;4.246;2023-07-28T10:27:30;4.85;;;2.58;;
53409;SDS011;66590;50.734;4.246;2023-07-28T10:30:03;6.45;;;5.85;;
53409;SDS011;66590;50.734;4.246;2023-07-28T10:32:38;6.10;;;4.07;;
53409;SDS011;66590;50.734;4.246;2023-07-28T10:35:07;6.00;;;3.00;;
53409;SDS011;66590;50.734;4.246;2023-07-28T10:37:44;3.40;;;3.10;;
53409;SDS011;66590;50.734;4.246;2023-07-28T10:40:27;3.25;;;2.83;;
53409;SDS011;66590;50.734;4.246;2023-07-28T10:43:01;3.28;;;3.03;;
53409;SDS011;66590;50.734;4.246;2023-07-28T10:45:30;3.63;;;3.10;;
53409;SDS011;66590;50.734;4.246;2023-07-28T10:48:05;3.00;;;2.60;;
53409;SDS011;66590;50.734;4.246;2023-07-28T10:50:34;2.88;;;2.58;;
53409;SDS011;66590;50.734;4.246;2023-07-28T10:53:09;3.47;;;2.55;;
53409;SDS011;66590;50.734;4.246;2023-07-28T10:55:37;3.58;;;3.10;;
53409;SDS011;66590;50.734;4.246;2023-07-28T10:58:11;3.45;;;2.80;;
53409;SDS011;66590;50.734;4.246;2023-07-28T11:00:40;2.83;;;2.42;;
53409;SDS011;66590;50.734;4.246;2023-07-28T11:03:13;2.13;;;1.98;;
53409;SDS011;66590;50.734;4.246;2023-07-28T11:05:40;1.90;;;1.70;;
53409;SDS011;66590;50.734;4.246;2023-07-28T11:08:09;3.22;;;1.67;;
53409;SDS011;66590;50.734;4.246;2023-07-28T11:10:44;1.92;;;1.83;;
53409;SDS011;66590;50.734;4.246;2023-07-28T11:13:11;2.97;;;2.03;;
53409;SDS011;66590;50.734;4.246;2023-07-28T11:15:51;3.00;;;2.00;;
53409;SDS011;66590;50.734;4.246;2023-07-28T11:18:18;2.55;;;2.30;;
53409;SDS011;66590;50.734;4.246;2023-07-28T11:20:52;3.80;;;2.57;;
53409;SDS011;66590;50.734;4.246;2023-07-28T11:23:20;2.00;;;1.90;;
53409;SDS011;66590;50.734;4.246;2023-07-28T11:28:20;3.15;;;2.33;;
53409;SDS011;66590;50.734;4.246;2023-07-28T11:30:48;3.03;;;2.10;;
53409;SDS011;66590;50.734;4.246;2023-07-28T11:33:22;3.35;;;2.63;;
53409;SDS011;66590;50.734;4.246;2023-07-28T11:35:49;2.42;;;2.22;;
53409;SDS011;66590;50.734;4.246;2023-07-28T11:38:25;3.30;;;2.25;;
53409;SDS011;66590;50.734;4.246;2023-07-28T11:40:53;2.55;;;2.35;;
53409;SDS011;66590;50.734;4.246;2023-07-28T11:43:27;2.55;;;2.35;;
53409;SDS011;66590;50.734;4.246;2023-07-28T11:45:54;3.75;;;2.08;;
53409;SDS011;66590;50.734;4.246;2023-07-28T11:48:21;2.38;;;2.20;;
53409;SDS011;66590;50.734;4.246;2023-07-28T11:50:48;2.60;;;2.10;;
53409;SDS011;66590;50.734;4.246;2023-07-28T11:53:15;2.30;;;2.10;;
53409;SDS011;66590;50.734;4.246;2023-07-28T11:55:44;2.95;;;2.22;;
53409;SDS011;66590;50.734;4.246;2023-07-28T11:58:11;3.85;;;3.17;;
53409;SDS011;66590;50.734;4.246;2023-07-28T12:00:39;3.40;;;3.10;;
53409;SDS011;66590;50.734;4.246;2023-07-28T12:03:07;3.63;;;3.10;;
53409;SDS011;66590;50.734;4.246;2023-07-28T12:05:35;3.72;;;2.67;;
53409;SDS011;66590;50.734;4.246;2023-07-28T12:11:02;3.20;;;2.50;;
53409;SDS011;66590;50.734;4.246;2023-07-28T12:13:33;2.58;;;2.38;;
53409;SDS011;66590;50.734;4.246;2023-07-28T12:16:38;3.05;;;2.30;;
53409;SDS011;66590;50.734;4.246;2023-07-28T12:19:08;2.42;;;1.95;;
53409;SDS011;66590;50.734;4.246;2023-07-28T12:21:36;1.63;;;1.52;;
53409;SDS011;66590;50.734;4.246;2023-07-28T12:24:03;2.25;;;1.95;;
53409;SDS011;66590;50.734;4.246;2023-07-28T12:26:35;1.70;;;1.60;;
53409;SDS011;66590;50.734;4.246;2023-07-28T12:29:06;3.00;;;2.15;;
53409;SDS011;66590;50.734;4.246;2023-07-28T12:31:37;1.73;;;1.63;;
53409;SDS011;66590;50.734;4.246;2023-07-28T12:34:07;3.88;;;1.90;;
53409;SDS011;66590;50.734;4.246;2023-07-28T12:36:34;1.45;;;1.33;;
53409;SDS011;66590;50.734;4.246;2023-07-28T12:39:04;1.65;;;1.50;;
53409;SDS011;66590;50.734;4.246;2023-07-28T12:41:35;2.15;;;1.80;;
53409;SDS011;66590;50.734;4.246;2023-07-28T12:44:05;2.03;;;1.30;;
53409;SDS011;66590;50.734;4.246;2023-07-28T12:46:33;1.95;;;1.60;;
53409;SDS011;66590;50.734;4.246;2023-07-28T12:49:00;1.77;;;1.60;;
53409;SDS011;66590;50.734;4.246;2023-07-28T12:51:27;1.80;;;1.30;;
53409;SDS011;66590;50.734;4.246;2023-07-28T12:53:56;1.50;;;1.40;;
53409;SDS011;66590;50.734;4.246;2023-07-28T12:56:23;1.80;;;1.63;;
53409;SDS011;66590;50.734;4.246;2023-07-28T12:58:55;2.83;;;1.50;;
53409;SDS011;66590;50.734;4.246;2023-07-28T13:01:25;1.63;;;1.52;;
53409;SDS011;66590;50.734;4.246;2023-07-28T13:03:52;1.98;;;1.60;;
53409;SDS011;66590;50.734;4.246;2023-07-28T13:06:19;2.10;;;1.58;;
53409;SDS011;66590;50.734;4.246;2023-07-28T13:08:47;1.77;;;1.63;;
53409;SDS011;66590;50.734;4.246;2023-07-28T13:11:17;5.13;;;1.70;;
53409;SDS011;66590;50.734;4.246;2023-07-28T13:13:45;1.83;;;1.70;;
53409;SDS011;66590;50.734;4.246;2023-07-28T13:16:13;2.05;;;1.80;;
53409;SDS011;66590;50.734;4.246;2023-07-28T13:18:41;2.10;;;1.67;;
53409;SDS011;66590;50.734;4.246;2023-07-28T13:21:09;5.25;;;2.47;;
53409;SDS011;66590;50.734;4.246;2023-07-28T13:23:36;3.75;;;1.85;;
53409;SDS011;66590;50.734;4.246;2023-07-28T13:26:03;2.53;;;1.58;;
53409;SDS011;66590;50.734;4.246;2023-07-28T13:28:31;2.95;;;1.90;;
53409;SDS011;66590;50.734;4.246;2023-07-28T13:30:58;2.47;;;1.80;;
53409;SDS011;66590;50.734;4.246;2023-07-28T13:33:26;3.08;;;1.90;;
53409;SDS011;66590;50.734;4.246;2023-07-28T13:35:53;1.90;;;1.70;;
53409;SDS011;66590;50.734;4.246;2023-07-28T13:38:22;1.98;;;1.50;;
53409;SDS011;66590;50.734;4.246;2023-07-28T13:40:49;1.92;;;1.40;;
53409;SDS011;66590;50.734;4.246;2023-07-28T13:43:16;5.15;;;1.60;;
53409;SDS011;66590;50.734;4.246;2023-07-28T13:45:43;4.50;;;1.80;;
53409;SDS011;66590;50.734;4.246;2023-07-28T13:48:10;2.22;;;1.70;;
53409;SDS011;66590;50.734;4.246;2023-07-28T13:50:52;1.70;;;1.60;;
53409;SDS011;66590;50.734;4.246;2023-07-28T13:53:21;1.45;;;1.30;;
53409;SDS011;66590;50.734;4.246;2023-07-28T13:55:51;1.52;;;1.40;;
53409;SDS011;66590;50.734;4.246;2023-07-28T13:58:21;3.38;;;1.50;;
53409;SDS011;66590;50.734;4.246;2023-07-28T14:00:49;2.17;;;1.65;;
53409;SDS011;66590;50.734;4.246;2023-07-28T14:03:16;3.15;;;1.75;;
53409;SDS011;66590;50.734;4.246;2023-07-28T14:05:44;1.70;;;1.60;;
53409;SDS011;66590;50.734;4.246;2023-07-28T14:08:12;1.80;;;1.58;;
53409;SDS011;66590;50.734;4.246;2023-07-28T14:10:43;2.20;;;1.50;;
53409;SDS011;66590;50.734;4.246;2023-07-28T14:13:10;2.25;;;1.65;;
53409;SDS011;66590;50.734;4.246;2023-07-28T14:15:37;2.65;;;1.77;;
53409;SDS011;66590;50.734;4.246;2023-07-28T14:18:06;2.47;;;1.52;;
53409;SDS011;66590;50.734;4.246;2023-07-28T14:20:34;2.28;;;1.70;;
53409;SDS011;66590;50.734;4.246;2023-07-28T14:23:01;2.72;;;1.92;;
53409;SDS011;66590;50.734;4.246;2023-07-28T14:25:29;2.67;;;1.80;;
53409;SDS011;66590;50.734;4.246;2023-07-28T14:27:56;3.95;;;2.10;;
53409;SDS011;66590;50.734;4.246;2023-07-28T14:30:23;2.25;;;1.50;;
53409;SDS011;66590;50.734;4.246;2023-07-28T14:32:50;2.08;;;1.70;;
53409;SDS011;66590;50.734;4.246;2023-07-28T14:35:17;2.28;;;1.75;;
53409;SDS011;66590;50.734;4.246;2023-07-28T14:37:44;2.08;;;1.70;;
53409;SDS011;66590;50.734;4.246;2023-07-28T14:40:11;3.65;;;1.90;;
53409;SDS011;66590;50.734;4.246;2023-07-28T14:42:39;2.03;;;1.70;;
53409;SDS011;66590;50.734;4.246;2023-07-28T14:45:07;2.33;;;2.10;;
53409;SDS011;66590;50.734;4.246;2023-07-28T14:47:34;2.58;;;1.58;;
53409;SDS011;66590;50.734;4.246;2023-07-28T14:50:01;2.10;;;1.90;;
53409;SDS011;66590;50.734;4.246;2023-07-28T14:52:28;4.28;;;2.53;;
53409;SDS011;66590;50.734;4.246;2023-07-28T14:54:55;1.88;;;1.70;;
53409;SDS011;66590;50.734;4.246;2023-07-28T14:57:22;2.08;;;1.80;;
53409;SDS011;66590;50.734;4.246;2023-07-28T15:00:01;2.47;;;1.75;;
53409;SDS011;66590;50.734;4.246;2023-07-28T15:02:28;4.13;;;1.73;;
53409;SDS011;66590;50.734;4.246;2023-07-28T15:04:55;2.20;;;1.70;;